F/V Deux Freres I — FLST — position and weather

sailwx.info

Track history (hours):
 
Tides and Currents Weather Stations Pressure Air Temp Water Temp Dewpoint Dewpoint Depression Visibility Wind Speed Wind Dir Waves Ship Positions

F/V Deux Freres I

Last reported at 2014-Sep-14 22:10 UTC. Time now 2014-Sep-15 02:05 UTC.
Position N 43°13' E 003°52'.

Length 18 m; draft 3.9 m.

Type: Fishing. MMSI: 228338900.

Date/timePositionNaut miles runAvg speedWind from/ knotsBaromVisibWave heightAir tempDewpointWater temp
2014-Sep-14 22:10N 43°13' E 003°52'12 4.6
2014-Sep-14 19:26N 43°02' E 004°01'2 2.2
2014-Sep-14 18:33N 43°01' E 004°02'0 0.3
2014-Sep-14 17:21N 43°01' E 004°03'4 5.0
2014-Sep-14 16:27N 43°04' E 003°59'8 8.3
2014-Sep-14 15:27N 43°12' E 003°55'15 7.4
2014-Sep-14 13:24N 43°25' E 003°45'0 0.0
2014-Sep-14 12:10N 43°25' E 003°45'0 0.0
2014-Sep-14 11:17N 43°25' E 003°45'0 0.0
2014-Sep-14 09:32N 43°25' E 003°45'0 0.0
2014-Sep-14 08:29N 43°25' E 003°45'0 0.0
2014-Sep-14 07:19N 43°25' E 003°45'0 0.0
2014-Sep-14 01:26N 43°25' E 003°45'0 0.0
2014-Sep-13 21:34N 43°25' E 003°45'0 0.0
2014-Sep-13 20:33N 43°25' E 003°45'0 0.0
2014-Sep-13 19:30N 43°25' E 003°45'0 0.0
2014-Sep-13 18:30N 43°25' E 003°45'0 0.0
2014-Sep-13 17:32N 43°25' E 003°45'0 0.0
2014-Sep-13 16:33N 43°25' E 003°45'0 0.0
2014-Sep-13 15:25N 43°25' E 003°45'0 0.0
2014-Sep-13 14:14N 43°25' E 003°45'0 0.0
2014-Sep-13 13:32N 43°25' E 003°45'0 0.0
2014-Sep-13 12:29N 43°25' E 003°45'0 0.0
2014-Sep-13 11:32N 43°25' E 003°45'0 0.0
2014-Sep-13 10:34N 43°25' E 003°45'0 0.0
2014-Sep-13 09:31N 43°25' E 003°45'0 0.0
2014-Sep-13 08:08N 43°25' E 003°45'0 0.0
2014-Sep-13 07:27N 43°25' E 003°45'0 0.0
2014-Sep-13 06:14N 43°25' E 003°45'0 0.0
2014-Sep-13 05:29N 43°25' E 003°45'0 0.0
2014-Sep-13 00:25N 43°25' E 003°45'0 0.0
2014-Sep-12 23:28N 43°25' E 003°45'0 0.0
2014-Sep-12 22:16N 43°25' E 003°45'0 0.0
2014-Sep-12 21:30N 43°25' E 003°45'0 0.0
2014-Sep-12 20:32N 43°25' E 003°45'0 0.0
2014-Sep-12 19:19N 43°25' E 003°45'0 0.0
2014-Sep-12 18:32N 43°25' E 003°45'0 0.0
2014-Sep-12 17:32N 43°25' E 003°45'0 0.0
2014-Sep-12 16:30N 43°25' E 003°45'0 0.0
2014-Sep-12 15:31N 43°25' E 003°45'0 0.0
2014-Sep-12 14:09N 43°25' E 003°45'0 0.0
2014-Sep-12 13:30N 43°25' E 003°45'0 0.0
2014-Sep-12 12:27N 43°25' E 003°45'0 0.0
2014-Sep-12 11:31N 43°25' E 003°45'0 0.0
2014-Sep-12 10:29N 43°25' E 003°45'0 0.0
2014-Sep-12 09:19N 43°25' E 003°45'0 0.0
2014-Sep-12 08:26N 43°25' E 003°45'0 0.0
2014-Sep-12 07:25N 43°25' E 003°45'0 0.0
2014-Sep-12 06:27N 43°25' E 003°45'0 0.0
2014-Sep-11 22:20N 43°25' E 003°45'0 0.0
2014-Sep-11 21:25N 43°25' E 003°45'0 0.0
2014-Sep-11 20:26N 43°25' E 003°45'0 0.0
2014-Sep-11 19:27N 43°25' E 003°45'0 0.0
2014-Sep-11 18:29N 43°25' E 003°45'0 0.0
2014-Sep-11 17:24N 43°25' E 003°45'0 0.0
2014-Sep-11 16:32N 43°25' E 003°45'0 0.0
2014-Sep-11 15:26N 43°25' E 003°45'0 0.0
2014-Sep-11 14:33N 43°25' E 003°45'0 0.0
2014-Sep-11 13:22N 43°25' E 003°45'0 0.0
2014-Sep-11 12:33N 43°25' E 003°45'0 0.0
2014-Sep-11 11:27N 43°25' E 003°45'0 0.0
2014-Sep-11 10:33N 43°25' E 003°45'0 0.0
2014-Sep-11 09:28N 43°25' E 003°45'0 0.0
2014-Sep-11 08:24N 43°25' E 003°45'0 0.0
2014-Sep-11 07:09N 43°25' E 003°45'0 0.0
2014-Sep-11 06:27N 43°25' E 003°45'0 0.0
2014-Sep-11 05:33N 43°25' E 003°45'0 0.0
2014-Sep-11 04:30N 43°25' E 003°45'0 0.0
2014-Sep-11 03:28N 43°25' E 003°45'0 0.0
2014-Sep-11 02:25N 43°25' E 003°45'0 0.0
2014-Sep-11 01:28N 43°25' E 003°45'0 0.0
2014-Sep-11 00:32N 43°25' E 003°45'0 0.0
2014-Sep-10 23:33N 43°25' E 003°45'0 0.0
2014-Sep-10 22:29N 43°25' E 003°45'0 0.0
2014-Sep-10 21:32N 43°25' E 003°45'0 0.0
2014-Sep-10 19:33N 43°25' E 003°45'0 0.0
2014-Sep-10 18:11N 43°25' E 003°45'0 0.0
2014-Sep-10 17:32N 43°25' E 003°45'0 0.0
2014-Sep-10 16:30N 43°25' E 003°45'0 0.0
2014-Sep-10 15:26N 43°25' E 003°45'0 0.0
2014-Sep-10 14:17N 43°25' E 003°45'0 0.0
2014-Sep-10 13:32N 43°25' E 003°45'0 0.0
2014-Sep-10 11:32N 43°25' E 003°45'0 0.0
2014-Sep-10 10:33N 43°25' E 003°45'0 0.0
2014-Sep-10 09:32N 43°25' E 003°45'0 0.0
2014-Sep-10 08:17N 43°25' E 003°45'0 0.0
2014-Sep-10 07:25N 43°25' E 003°45'0 0.0
2014-Sep-10 06:33N 43°25' E 003°45'0 0.0
2014-Sep-09 12:26N 43°25' E 003°45'0 0.0
2014-Sep-09 10:25N 43°25' E 003°45'0 0.0
2014-Sep-09 09:22N 43°25' E 003°45'0 0.0
2014-Sep-09 08:30N 43°25' E 003°45'0 0.0
2014-Sep-09 07:33N 43°25' E 003°45'0 0.0
2014-Sep-09 06:27N 43°25' E 003°45'0 0.0
2014-Sep-09 05:32N 43°25' E 003°45'0 0.0
2014-Sep-08 23:12N 43°25' E 003°45'0 0.0
2014-Sep-08 21:32N 43°25' E 003°45'0 0.0
2014-Sep-08 20:31N 43°25' E 003°45'0 0.0
2014-Sep-08 19:21N 43°25' E 003°45'0 0.0
2014-Sep-08 18:32N 43°25' E 003°45'0 0.0
2014-Sep-08 17:25N 43°25' E 003°45'0 0.0
2014-Sep-08 16:23N 43°25' E 003°45'0 0.0
2014-Sep-08 15:33N 43°25' E 003°45'0 0.0
2014-Sep-08 14:11N 43°25' E 003°45'0 0.0
2014-Sep-08 13:33N 43°25' E 003°45'0 0.0
2014-Sep-08 12:19N 43°25' E 003°45'0 0.0
2014-Sep-08 11:33N 43°25' E 003°45'0 0.0
2014-Sep-08 10:21N 43°25' E 003°45'0 0.0
2014-Sep-08 09:26N 43°25' E 003°45'0 0.0
2014-Sep-08 08:32N 43°25' E 003°45'0 0.0
2014-Sep-08 07:06N 43°25' E 003°45'0 0.0
2014-Sep-08 06:28N 43°25' E 003°45'0 0.0
2014-Sep-07 20:31N 43°25' E 003°45'0 0.0
2014-Sep-07 19:22N 43°25' E 003°45'0 0.0
2014-Sep-07 18:27N 43°25' E 003°45'0 0.0
2014-Sep-07 17:24N 43°25' E 003°45'0 0.0
2014-Sep-07 16:31N 43°25' E 003°45'0 0.0
2014-Sep-07 15:33N 43°25' E 003°45'0 0.0
2014-Sep-07 14:34N 43°25' E 003°45'0 0.0
2014-Sep-07 13:14N 43°25' E 003°45'0 0.0
2014-Sep-07 12:27N 43°25' E 003°45'0 0.0
2014-Sep-07 11:32N 43°25' E 003°45'0 0.0
2014-Sep-07 10:31N 43°25' E 003°45'0 0.0
2014-Sep-07 09:31N 43°25' E 003°45'0 0.0
2014-Sep-07 08:31N 43°25' E 003°45'0 0.0
2014-Sep-07 07:33N 43°25' E 003°45'0 0.0
2014-Sep-07 06:15N 43°25' E 003°45'0 0.0
2014-Sep-06 23:20N 43°25' E 003°45'0 0.0
2014-Sep-06 22:03N 43°25' E 003°45'0 0.0
2014-Sep-06 21:23N 43°25' E 003°45'0 0.0
2014-Sep-06 20:29N 43°25' E 003°45'0 0.0
2014-Sep-06 19:28N 43°25' E 003°45'0 0.0
2014-Sep-06 18:33N 43°25' E 003°45'0 0.0
2014-Sep-06 17:33N 43°25' E 003°45'0 0.0
2014-Sep-06 16:26N 43°25' E 003°45'0 0.0
2014-Sep-06 15:33N 43°25' E 003°45'0 0.0
2014-Sep-06 14:24N 43°25' E 003°45'0 0.0
2014-Sep-06 13:29N 43°25' E 003°45'0 0.0
2014-Sep-06 12:26N 43°25' E 003°45'0 0.0
2014-Sep-06 11:33N 43°25' E 003°45'0 0.0
2014-Sep-06 10:32N 43°25' E 003°45'0 0.0
2014-Sep-06 09:33N 43°25' E 003°45'0 0.0
2014-Sep-06 08:26N 43°25' E 003°45'0 0.0
2014-Sep-06 07:25N 43°25' E 003°45'0 0.0
2014-Sep-06 06:33N 43°25' E 003°45'0 0.0
2014-Sep-05 22:29N 43°25' E 003°45'0 0.0
2014-Sep-05 21:28N 43°25' E 003°45'0 0.0
2014-Sep-05 20:29N 43°25' E 003°45'0 0.0
2014-Sep-05 19:33N 43°25' E 003°45'0 0.0
2014-Sep-05 18:33N 43°25' E 003°45'0 0.0
2014-Sep-05 17:32N 43°25' E 003°45'0 0.0
2014-Sep-05 16:33N 43°25' E 003°45'0 0.0
2014-Sep-05 15:27N 43°25' E 003°45'0 0.0
2014-Sep-05 14:32N 43°25' E 003°45'0 0.0
2014-Sep-05 13:32N 43°25' E 003°45'0 0.0
2014-Sep-05 12:28N 43°25' E 003°45'0 0.0
2014-Sep-05 11:31N 43°25' E 003°45'0 0.0
2014-Sep-05 10:33N 43°25' E 003°45'0 0.0
2014-Sep-05 09:27N 43°25' E 003°45'0 0.0
2014-Sep-05 08:30N 43°25' E 003°45'0 0.0
2014-Sep-05 07:30N 43°25' E 003°45'0 0.0
2014-Sep-05 06:25N 43°25' E 003°45'0 0.0
2014-Sep-05 05:30N 43°25' E 003°45'0 0.0
2014-Sep-05 04:31N 43°25' E 003°45'0 0.0
2014-Sep-05 03:25N 43°25' E 003°45'0 0.0
2014-Sep-05 02:29N 43°25' E 003°45'0 0.0
2014-Sep-05 01:32N 43°25' E 003°45'0 0.0
2014-Sep-05 00:30N 43°25' E 003°45'0 0.0
2014-Sep-04 23:33N 43°25' E 003°45'0 0.0
2014-Sep-04 22:33N 43°25' E 003°45'  
Track history (hours):
 
Tides and Currents Weather Stations Pressure Air Temp Water Temp Dewpoint Dewpoint Depression Visibility Wind Speed Wind Dir Waves Ship Positions

F/V Deux Freres I

Last reported at 2014-Sep-14 22:10 UTC. Time now 2014-Sep-15 02:05 UTC.
Position N 43°13' E 003°52'.

Length 18 m; draft 3.9 m.

Type: Fishing. MMSI: 228338900.

Date/timePositionNaut miles runAvg speedWind from/ knotsBaromVisibWave heightAir tempDewpointWater temp
2014-Sep-14 22:10N 43°13' E 003°52'12 4.6
2014-Sep-14 19:26N 43°02' E 004°01'2 2.2
2014-Sep-14 18:33N 43°01' E 004°02'0 0.3
2014-Sep-14 17:21N 43°01' E 004°03'4 5.0
2014-Sep-14 16:27N 43°04' E 003°59'8 8.3
2014-Sep-14 15:27N 43°12' E 003°55'15 7.4
2014-Sep-14 13:24N 43°25' E 003°45'0 0.0
2014-Sep-14 12:10N 43°25' E 003°45'0 0.0
2014-Sep-14 11:17N 43°25' E 003°45'0 0.0
2014-Sep-14 09:32N 43°25' E 003°45'0 0.0
2014-Sep-14 08:29N 43°25' E 003°45'0 0.0
2014-Sep-14 07:19N 43°25' E 003°45'0 0.0
2014-Sep-14 01:26N 43°25' E 003°45'0 0.0
2014-Sep-13 21:34N 43°25' E 003°45'0 0.0
2014-Sep-13 20:33N 43°25' E 003°45'0 0.0
2014-Sep-13 19:30N 43°25' E 003°45'0 0.0
2014-Sep-13 18:30N 43°25' E 003°45'0 0.0
2014-Sep-13 17:32N 43°25' E 003°45'0 0.0
2014-Sep-13 16:33N 43°25' E 003°45'0 0.0
2014-Sep-13 15:25N 43°25' E 003°45'0 0.0
2014-Sep-13 14:14N 43°25' E 003°45'0 0.0
2014-Sep-13 13:32N 43°25' E 003°45'0 0.0
2014-Sep-13 12:29N 43°25' E 003°45'0 0.0
2014-Sep-13 11:32N 43°25' E 003°45'0 0.0
2014-Sep-13 10:34N 43°25' E 003°45'0 0.0
2014-Sep-13 09:31N 43°25' E 003°45'0 0.0
2014-Sep-13 08:08N 43°25' E 003°45'0 0.0
2014-Sep-13 07:27N 43°25' E 003°45'0 0.0
2014-Sep-13 06:14N 43°25' E 003°45'0 0.0
2014-Sep-13 05:29N 43°25' E 003°45'0 0.0
2014-Sep-13 00:25N 43°25' E 003°45'0 0.0
2014-Sep-12 23:28N 43°25' E 003°45'0 0.0
2014-Sep-12 22:16N 43°25' E 003°45'0 0.0
2014-Sep-12 21:30N 43°25' E 003°45'0 0.0
2014-Sep-12 20:32N 43°25' E 003°45'0 0.0
2014-Sep-12 19:19N 43°25' E 003°45'0 0.0
2014-Sep-12 18:32N 43°25' E 003°45'0 0.0
2014-Sep-12 17:32N 43°25' E 003°45'0 0.0
2014-Sep-12 16:30N 43°25' E 003°45'0 0.0
2014-Sep-12 15:31N 43°25' E 003°45'0 0.0
2014-Sep-12 14:09N 43°25' E 003°45'0 0.0
2014-Sep-12 13:30N 43°25' E 003°45'0 0.0
2014-Sep-12 12:27N 43°25' E 003°45'0 0.0
2014-Sep-12 11:31N 43°25' E 003°45'0 0.0
2014-Sep-12 10:29N 43°25' E 003°45'0 0.0
2014-Sep-12 09:19N 43°25' E 003°45'0 0.0
2014-Sep-12 08:26N 43°25' E 003°45'0 0.0
2014-Sep-12 07:25N 43°25' E 003°45'0 0.0
2014-Sep-12 06:27N 43°25' E 003°45'0 0.0
2014-Sep-11 22:20N 43°25' E 003°45'0 0.0
2014-Sep-11 21:25N 43°25' E 003°45'0 0.0
2014-Sep-11 20:26N 43°25' E 003°45'0 0.0
2014-Sep-11 19:27N 43°25' E 003°45'0 0.0
2014-Sep-11 18:29N 43°25' E 003°45'0 0.0
2014-Sep-11 17:24N 43°25' E 003°45'0 0.0
2014-Sep-11 16:32N 43°25' E 003°45'0 0.0
2014-Sep-11 15:26N 43°25' E 003°45'0 0.0
2014-Sep-11 14:33N 43°25' E 003°45'0 0.0
2014-Sep-11 13:22N 43°25' E 003°45'0 0.0
2014-Sep-11 12:33N 43°25' E 003°45'0 0.0
2014-Sep-11 11:27N 43°25' E 003°45'0 0.0
2014-Sep-11 10:33N 43°25' E 003°45'0 0.0
2014-Sep-11 09:28N 43°25' E 003°45'0 0.0
2014-Sep-11 08:24N 43°25' E 003°45'0 0.0
2014-Sep-11 07:09N 43°25' E 003°45'0 0.0
2014-Sep-11 06:27N 43°25' E 003°45'0 0.0
2014-Sep-11 05:33N 43°25' E 003°45'0 0.0
2014-Sep-11 04:30N 43°25' E 003°45'0 0.0
2014-Sep-11 03:28N 43°25' E 003°45'0 0.0
2014-Sep-11 02:25N 43°25' E 003°45'0 0.0
2014-Sep-11 01:28N 43°25' E 003°45'0 0.0
2014-Sep-11 00:32N 43°25' E 003°45'0 0.0
2014-Sep-10 23:33N 43°25' E 003°45'0 0.0
2014-Sep-10 22:29N 43°25' E 003°45'0 0.0
2014-Sep-10 21:32N 43°25' E 003°45'0 0.0
2014-Sep-10 19:33N 43°25' E 003°45'0 0.0
2014-Sep-10 18:11N 43°25' E 003°45'0 0.0
2014-Sep-10 17:32N 43°25' E 003°45'0 0.0
2014-Sep-10 16:30N 43°25' E 003°45'0 0.0
2014-Sep-10 15:26N 43°25' E 003°45'0 0.0
2014-Sep-10 14:17N 43°25' E 003°45'0 0.0
2014-Sep-10 13:32N 43°25' E 003°45'0 0.0
2014-Sep-10 11:32N 43°25' E 003°45'0 0.0
2014-Sep-10 10:33N 43°25' E 003°45'0 0.0
2014-Sep-10 09:32N 43°25' E 003°45'0 0.0
2014-Sep-10 08:17N 43°25' E 003°45'0 0.0
2014-Sep-10 07:25N 43°25' E 003°45'0 0.0
2014-Sep-10 06:33N 43°25' E 003°45'0 0.0
2014-Sep-09 12:26N 43°25' E 003°45'0 0.0
2014-Sep-09 10:25N 43°25' E 003°45'0 0.0
2014-Sep-09 09:22N 43°25' E 003°45'0 0.0
2014-Sep-09 08:30N 43°25' E 003°45'0 0.0
2014-Sep-09 07:33N 43°25' E 003°45'0 0.0
2014-Sep-09 06:27N 43°25' E 003°45'0 0.0
2014-Sep-09 05:32N 43°25' E 003°45'0 0.0
2014-Sep-08 23:12N 43°25' E 003°45'0 0.0
2014-Sep-08 21:32N 43°25' E 003°45'0 0.0
2014-Sep-08 20:31N 43°25' E 003°45'0 0.0
2014-Sep-08 19:21N 43°25' E 003°45'0 0.0
2014-Sep-08 18:32N 43°25' E 003°45'0 0.0
2014-Sep-08 17:25N 43°25' E 003°45'0 0.0
2014-Sep-08 16:23N 43°25' E 003°45'0 0.0
2014-Sep-08 15:33N 43°25' E 003°45'0 0.0
2014-Sep-08 14:11N 43°25' E 003°45'0 0.0
2014-Sep-08 13:33N 43°25' E 003°45'0 0.0
2014-Sep-08 12:19N 43°25' E 003°45'0 0.0
2014-Sep-08 11:33N 43°25' E 003°45'0 0.0
2014-Sep-08 10:21N 43°25' E 003°45'0 0.0
2014-Sep-08 09:26N 43°25' E 003°45'0 0.0
2014-Sep-08 08:32N 43°25' E 003°45'0 0.0
2014-Sep-08 07:06N 43°25' E 003°45'0 0.0
2014-Sep-08 06:28N 43°25' E 003°45'0 0.0
2014-Sep-07 20:31N 43°25' E 003°45'0 0.0
2014-Sep-07 19:22N 43°25' E 003°45'0 0.0
2014-Sep-07 18:27N 43°25' E 003°45'0 0.0
2014-Sep-07 17:24N 43°25' E 003°45'0 0.0
2014-Sep-07 16:31N 43°25' E 003°45'0 0.0
2014-Sep-07 15:33N 43°25' E 003°45'0 0.0
2014-Sep-07 14:34N 43°25' E 003°45'0 0.0
2014-Sep-07 13:14N 43°25' E 003°45'0 0.0
2014-Sep-07 12:27N 43°25' E 003°45'0 0.0
2014-Sep-07 11:32N 43°25' E 003°45'0 0.0
2014-Sep-07 10:31N 43°25' E 003°45'0 0.0
2014-Sep-07 09:31N 43°25' E 003°45'0 0.0
2014-Sep-07 08:31N 43°25' E 003°45'0 0.0
2014-Sep-07 07:33N 43°25' E 003°45'0 0.0
2014-Sep-07 06:15N 43°25' E 003°45'0 0.0
2014-Sep-06 23:20N 43°25' E 003°45'0 0.0
2014-Sep-06 22:03N 43°25' E 003°45'0 0.0
2014-Sep-06 21:23N 43°25' E 003°45'0 0.0
2014-Sep-06 20:29N 43°25' E 003°45'0 0.0
2014-Sep-06 19:28N 43°25' E 003°45'0 0.0
2014-Sep-06 18:33N 43°25' E 003°45'0 0.0
2014-Sep-06 17:33N 43°25' E 003°45'0 0.0
2014-Sep-06 16:26N 43°25' E 003°45'0 0.0
2014-Sep-06 15:33N 43°25' E 003°45'0 0.0
2014-Sep-06 14:24N 43°25' E 003°45'0 0.0
2014-Sep-06 13:29N 43°25' E 003°45'0 0.0
2014-Sep-06 12:26N 43°25' E 003°45'0 0.0
2014-Sep-06 11:33N 43°25' E 003°45'0 0.0
2014-Sep-06 10:32N 43°25' E 003°45'0 0.0
2014-Sep-06 09:33N 43°25' E 003°45'0 0.0
2014-Sep-06 08:26N 43°25' E 003°45'0 0.0
2014-Sep-06 07:25N 43°25' E 003°45'0 0.0
2014-Sep-06 06:33N 43°25' E 003°45'0 0.0
2014-Sep-05 22:29N 43°25' E 003°45'0 0.0
2014-Sep-05 21:28N 43°25' E 003°45'0 0.0
2014-Sep-05 20:29N 43°25' E 003°45'0 0.0
2014-Sep-05 19:33N 43°25' E 003°45'0 0.0
2014-Sep-05 18:33N 43°25' E 003°45'0 0.0
2014-Sep-05 17:32N 43°25' E 003°45'0 0.0
2014-Sep-05 16:33N 43°25' E 003°45'0 0.0
2014-Sep-05 15:27N 43°25' E 003°45'0 0.0
2014-Sep-05 14:32N 43°25' E 003°45'0 0.0
2014-Sep-05 13:32N 43°25' E 003°45'0 0.0
2014-Sep-05 12:28N 43°25' E 003°45'0 0.0
2014-Sep-05 11:31N 43°25' E 003°45'0 0.0
2014-Sep-05 10:33N 43°25' E 003°45'0 0.0
2014-Sep-05 09:27N 43°25' E 003°45'0 0.0
2014-Sep-05 08:30N 43°25' E 003°45'0 0.0
2014-Sep-05 07:30N 43°25' E 003°45'0 0.0
2014-Sep-05 06:25N 43°25' E 003°45'0 0.0
2014-Sep-05 05:30N 43°25' E 003°45'0 0.0
2014-Sep-05 04:31N 43°25' E 003°45'0 0.0
2014-Sep-05 03:25N 43°25' E 003°45'0 0.0
2014-Sep-05 02:29N 43°25' E 003°45'0 0.0
2014-Sep-05 01:32N 43°25' E 003°45'0 0.0
2014-Sep-05 00:30N 43°25' E 003°45'0 0.0
2014-Sep-04 23:33N 43°25' E 003°45'0 0.0
2014-Sep-04 22:33N 43°25' E 003°45'  

Dump ship's entire track history